Time;durP1;ratioP1;P1;durP2;ratioP2;P2;SDS_P1;SDS_P2;PMS_P1;PMS_P2;Temp;Humidity;BMP_temperature;BMP_pressure;BME280_temperature;BME280_humidity;BME280_pressure;Samples;Min_cycle;Max_cycle;Signal;HPM_P1;HPM_P2
2024/02/27 00:01:47;;;;;;;747.97;705.80;;;7.20;99.90;;;;;;5033765;28;20175;-76
2024/02/27 00:04:13;;;;;;;769.03;724.97;;;7.30;99.90;;;;;;5033871;28;20189;-76
2024/02/27 00:06:39;;;;;;;763.77;721.13;;;7.40;99.90;;;;;;5033905;28;20169;-76
2024/02/27 00:09:05;;;;;;;778.20;734.47;;;7.30;99.90;;;;;;5033426;28;20497;-76
2024/02/27 00:11:30;;;;;;;789.23;746.03;;;7.30;99.90;;;;;;5033515;28;20432;-76
2024/02/27 00:13:56;;;;;;;739.33;698.73;;;7.30;99.90;;;;;;5033704;28;20679;-75
2024/02/27 00:16:22;;;;;;;768.13;725.23;;;7.20;99.90;;;;;;5033772;28;20196;-75
2024/02/27 00:18:50;;;;;;;795.63;751.07;;;7.20;99.90;;;;;;5033735;28;20225;-75
2024/02/27 00:21:16;;;;;;;771.00;727.77;;;7.20;99.90;;;;;;5033437;28;20777;-75
2024/02/27 00:23:41;;;;;;;725.30;685.60;;;7.20;99.90;;;;;;5033545;28;20412;-75
2024/02/27 00:26:07;;;;;;;761.93;718.80;;;7.30;99.90;;;;;;5033632;28;20231;-75
2024/02/27 00:28:32;;;;;;;761.87;719.77;;;7.30;99.90;;;;;;5033548;28;20161;-75
2024/02/27 00:30:58;;;;;;;757.17;715.80;;;7.30;99.90;;;;;;5033431;28;20283;-75
2024/02/27 00:33:23;;;;;;;802.27;755.97;;;7.20;99.90;;;;;;5033137;28;20188;-75
2024/02/27 00:35:49;;;;;;;760.20;717.03;;;7.40;99.90;;;;;;5033397;28;20173;-75
2024/02/27 00:38:15;;;;;;;756.67;713.30;;;7.30;99.90;;;;;;5033293;28;20219;-76
2024/02/27 00:40:41;;;;;;;768.97;725.83;;;7.20;99.90;;;;;;5033256;28;20408;-76
2024/02/27 00:43:06;;;;;;;730.53;690.60;;;7.20;99.90;;;;;;5032896;28;20190;-75
2024/02/27 00:45:32;;;;;;;782.13;738.83;;;7.50;99.90;;;;;;5033180;28;20223;-76
2024/02/27 00:47:58;;;;;;;736.07;695.57;;;7.20;99.90;;;;;;5033137;28;20533;-76
2024/02/27 00:50:24;;;;;;;887.77;833.67;;;7.40;99.90;;;;;;5033026;28;20222;-76
2024/02/27 00:52:50;;;;;;;752.87;710.53;;;7.20;99.90;;;;;;5032601;28;20190;-75
2024/02/27 00:55:16;;;;;;;727.93;687.53;;;7.20;99.90;;;;;;5032996;28;20418;-74
2024/02/27 00:57:42;;;;;;;735.27;694.67;;;7.20;99.90;;;;;;5032966;28;20400;-75
2024/02/27 01:00:09;;;;;;;751.77;709.47;;;7.30;99.90;;;;;;5032888;28;20553;-74
2024/02/27 01:02:35;;;;;;;849.27;799.20;;;7.20;99.90;;;;;;5032522;28;20610;-74
2024/02/27 01:05:01;;;;;;;734.07;694.07;;;7.30;99.90;;;;;;5032859;28;20407;-74
2024/02/27 01:07:27;;;;;;;748.47;708.57;;;7.20;99.90;;;;;;5032704;28;20423;-74
2024/02/27 01:09:56;;;;;;;751.67;709.13;;;7.10;99.90;;;;;;5032583;28;20459;-74
2024/02/27 01:12:21;;;;;;;748.07;706.43;;;7.00;99.90;;;;;;5032249;28;20189;-74
2024/02/27 01:14:47;;;;;;;758.57;716.30;;;7.20;99.90;;;;;;5032707;28;20395;-74
2024/02/27 01:17:13;;;;;;;847.20;797.33;;;7.30;99.90;;;;;;5032582;28;20474;-75
2024/02/27 01:19:39;;;;;;;783.53;739.70;;;7.40;99.90;;;;;;5032562;28;20186;-75
2024/02/27 01:22:04;;;;;;;779.80;736.50;;;7.20;99.90;;;;;;5031615;28;20173;-75
2024/02/27 01:24:30;;;;;;;782.23;738.17;;;7.30;99.90;;;;;;5032472;28;20173;-75
2024/02/27 01:26:55;;;;;;;783.67;739.67;;;7.30;99.90;;;;;;5032415;28;20184;-75
2024/02/27 01:29:22;;;;;;;822.67;775.17;;;7.30;99.90;;;;;;5032354;28;20661;-75
2024/02/27 01:31:47;;;;;;;777.67;734.33;;;7.30;99.90;;;;;;5032161;28;20584;-76
2024/02/27 01:34:13;;;;;;;811.57;766.07;;;7.30;99.90;;;;;;5032220;28;20517;-75
2024/02/27 01:36:39;;;;;;;789.47;744.43;;;7.40;99.90;;;;;;5032199;28;20606;-75
2024/02/27 01:39:04;;;;;;;755.57;711.90;;;7.20;99.90;;;;;;5032228;28;20168;-75
2024/02/27 01:41:31;;;;;;;751.33;708.83;;;7.20;99.90;;;;;;5031948;28;20251;-75
2024/02/27 01:43:56;;;;;;;781.40;736.97;;;7.20;99.90;;;;;;5032188;28;20196;-75
2024/02/27 01:46:23;;;;;;;778.70;735.73;;;7.40;99.90;;;;;;5032143;28;20749;-75
2024/02/27 01:48:50;;;;;;;758.00;715.40;;;7.30;99.90;;;;;;5032024;28;20173;-75
2024/02/27 01:51:18;;;;;;;743.90;701.60;;;7.20;99.90;;;;;;5031725;28;20400;-75
2024/02/27 01:53:49;;;;;;;765.00;721.90;;;7.20;99.90;;;;;;5031910;28;20419;-75
2024/02/27 01:56:17;;;;;;;790.70;745.33;;;7.20;99.90;;;;;;5032034;28;20895;-75
2024/02/27 01:58:44;;;;;;;791.50;747.73;;;7.50;99.90;;;;;;5031918;28;20772;-76
2024/02/27 02:01:11;;;;;;;747.17;705.40;;;7.30;99.90;;;;;;5031701;28;20402;-75
2024/02/27 02:03:38;;;;;;;793.27;749.37;;;7.20;99.90;;;;;;5031784;28;20428;-75
2024/02/27 02:06:06;;;;;;;790.70;746.90;;;7.20;99.90;;;;;;5031782;28;20442;-75
2024/02/27 02:08:33;;;;;;;831.53;784.33;;;7.30;99.90;;;;;;5031862;28;20411;-75
2024/02/27 02:10:59;;;;;;;822.00;774.93;;;7.60;99.90;;;;;;5031850;28;20993;-76
2024/02/27 02:13:25;;;;;;;771.27;727.57;;;7.20;99.90;;;;;;5031369;28;20970;-75
2024/02/27 02:15:51;;;;;;;728.13;688.87;;;7.20;99.90;;;;;;5031775;28;20479;-75
2024/02/27 02:18:17;;;;;;;709.20;669.73;;;7.00;99.90;;;;;;5031739;28;20494;-75
2024/02/27 02:20:42;;;;;;;706.13;667.23;;;6.90;99.90;;;;;;5031660;28;20179;-76
2024/02/27 02:23:08;;;;;;;699.53;661.20;;;6.90;99.90;;;;;;5031393;28;20242;-75
2024/02/27 02:25:36;;;;;;;703.23;664.73;;;6.90;99.90;;;;;;5031688;28;20176;-75
2024/02/27 02:28:02;;;;;;;680.43;643.33;;;6.90;99.90;;;;;;5031682;28;20172;-75
2024/02/27 02:30:27;;;;;;;689.33;651.03;;;6.90;99.90;;;;;;5031666;28;20465;-75
2024/02/27 02:32:53;;;;;;;714.80;675.73;;;6.90;99.90;;;;;;5031272;28;20427;-76
2024/02/27 02:35:19;;;;;;;708.43;668.70;;;6.90;99.90;;;;;;5035523;28;20218;-75
2024/02/27 02:37:48;;;;;;;682.20;644.80;;;6.80;99.90;;;;;;5035605;28;20190;-76
2024/02/27 02:40:15;;;;;;;713.53;674.93;;;6.90;99.90;;;;;;5035580;28;20941;-75
2024/02/27 02:42:40;;;;;;;671.57;635.70;;;6.90;99.90;;;;;;5035154;28;20431;-76
2024/02/27 02:45:07;;;;;;;711.27;671.43;;;6.80;99.90;;;;;;5035438;28;20415;-75
2024/02/27 02:47:33;;;;;;;652.33;616.77;;;6.80;99.90;;;;;;5035361;28;20169;-75
2024/02/27 02:49:58;;;;;;;703.17;664.80;;;6.50;99.90;;;;;;5035223;28;20452;-75
2024/02/27 02:52:24;;;;;;;738.83;697.57;;;6.80;99.90;;;;;;5035004;28;20189;-75
2024/02/27 02:54:49;;;;;;;723.70;683.30;;;6.70;99.90;;;;;;5035307;28;20169;-76
2024/02/27 02:57:18;;;;;;;695.43;657.70;;;6.90;99.90;;;;;;5035231;28;20169;-76
2024/02/27 02:59:44;;;;;;;681.60;644.30;;;6.80;99.90;;;;;;5035283;28;20601;-76
2024/02/27 03:02:10;;;;;;;709.87;670.67;;;6.90;99.90;;;;;;5034790;28;20407;-76
2024/02/27 03:04:36;;;;;;;681.30;644.80;;;7.00;99.90;;;;;;5035086;28;20517;-76
2024/02/27 03:07:01;;;;;;;713.17;674.20;;;6.60;99.90;;;;;;5035108;28;20315;-76
2024/02/27 03:09:27;;;;;;;728.03;688.20;;;6.80;99.90;;;;;;5035245;28;20533;-75
2024/02/27 03:11:52;;;;;;;703.60;665.53;;;6.90;99.90;;;;;;5034729;28;20169;-75
2024/02/27 03:14:18;;;;;;;714.73;676.27;;;6.80;99.90;;;;;;5034749;28;20221;-76
2024/02/27 03:16:45;;;;;;;722.60;682.37;;;6.70;99.90;;;;;;5034862;28;20287;-76
2024/02/27 03:19:12;;;;;;;707.87;669.07;;;6.80;99.90;;;;;;5034772;28;20818;-76
2024/02/27 03:21:38;;;;;;;735.07;693.80;;;6.90;99.90;;;;;;5034672;28;20798;-76
2024/02/27 03:24:04;;;;;;;710.87;672.83;;;6.90;99.90;;;;;;5034606;28;20430;-76
2024/02/27 03:26:29;;;;;;;723.07;682.47;;;6.90;99.90;;;;;;5034699;28;20403;-76
2024/02/27 03:28:55;;;;;;;684.10;646.40;;;6.90;99.90;;;;;;5034692;28;20172;-75
2024/02/27 03:31:21;;;;;;;728.23;688.47;;;7.00;99.90;;;;;;5034427;28;20161;-75
2024/02/27 03:33:46;;;;;;;738.60;698.47;;;7.00;99.90;;;;;;5034408;28;20859;-76
2024/02/27 03:36:13;;;;;;;759.90;718.40;;;6.90;99.90;;;;;;5034537;28;20168;-75
2024/02/27 03:38:38;;;;;;;692.37;654.10;;;6.90;99.90;;;;;;5034591;28;20203;-75
2024/02/27 03:41:04;;;;;;;778.73;734.53;;;6.90;99.90;;;;;;5034481;28;20403;-75
2024/02/27 03:43:30;;;;;;;728.03;686.83;;;6.90;99.90;;;;;;5034142;28;20215;-75
2024/02/27 03:45:55;;;;;;;715.90;675.50;;;6.80;99.90;;;;;;5074654;22;20447;-70
2024/02/27 03:48:21;;;;;;;724.10;684.30;;;7.00;99.90;;;;;;5034336;28;20180;-70
2024/02/27 03:50:47;;;;;;;779.27;734.50;;;7.10;99.90;;;;;;5034431;28;20288;-71
2024/02/27 03:53:12;;;;;;;813.97;766.90;;;7.00;99.90;;;;;;5032764;28;20175;-70
2024/02/27 03:55:38;;;;;;;770.07;725.43;;;6.70;99.90;;;;;;5034459;28;20560;-71
2024/02/27 03:58:04;;;;;;;726.60;687.23;;;;;;;;;;5034444;28;20171;-71
2024/02/27 04:00:30;;;;;;;745.70;704.87;;;6.90;99.90;;;;;;5034624;28;20539;-71
2024/02/27 04:02:55;;;;;;;724.13;684.67;;;7.30;99.90;;;;;;5034004;28;20403;-71
2024/02/27 04:05:22;;;;;;;880.63;827.53;;;6.90;99.90;;;;;;5016398;28;20178;-71
2024/02/27 04:07:47;;;;;;;752.23;712.20;;;6.90;99.90;;;;;;5034022;28;20219;-70
2024/02/27 04:10:13;;;;;;;733.07;693.47;;;6.90;99.90;;;;;;5034047;28;20532;-70
2024/02/27 04:12:39;;;;;;;655.37;619.90;;;6.80;99.90;;;;;;5033696;28;20537;-70
2024/02/27 04:15:06;;;;;;;659.03;622.80;;;6.80;99.90;;;;;;5033895;28;20579;-70
2024/02/27 04:17:32;;;;;;;728.30;688.30;;;6.70;99.90;;;;;;5033834;28;20550;-70
2024/02/27 04:19:58;;;;;;;734.60;693.70;;;;;;;;;;5033966;28;20407;-71
2024/02/27 04:22:24;;;;;;;699.50;661.23;;;6.70;99.90;;;;;;5033509;28;20263;-70
2024/02/27 04:24:49;;;;;;;695.60;658.00;;;6.70;99.90;;;;;;5033840;28;20407;-70
2024/02/27 04:27:15;;;;;;;714.13;676.00;;;6.80;99.90;;;;;;5015876;28;20452;-71
2024/02/27 04:29:41;;;;;;;966.10;896.00;;;6.80;99.90;;;;;;5033498;28;20697;-71
2024/02/27 04:32:07;;;;;;;711.33;672.57;;;6.80;99.90;;;;;;5033631;28;20698;-71
2024/02/27 04:34:33;;;;;;;698.57;660.60;;;6.70;99.90;;;;;;5033446;28;20418;-71
2024/02/27 04:36:59;;;;;;;706.50;668.53;;;7.00;99.90;;;;;;5033666;28;20526;-71
2024/02/27 04:39:25;;;;;;;689.00;651.73;;;7.00;99.90;;;;;;5033541;28;20407;-71
2024/02/27 04:41:50;;;;;;;893.50;839.27;;;6.90;99.90;;;;;;5033550;28;20526;-70
2024/02/27 04:44:19;;;;;;;708.60;669.30;;;6.80;99.90;;;;;;5033237;28;20418;-71
2024/02/27 04:46:45;;;;;;;692.07;654.10;;;7.00;99.90;;;;;;5033043;28;20204;-70
2024/02/27 04:49:10;;;;;;;761.03;719.07;;;6.90;99.90;;;;;;5033153;28;20565;-71
2024/02/27 04:51:36;;;;;;;986.93;921.37;;;6.90;99.90;;;;;;5032962;28;20168;-72
2024/02/27 04:54:02;;;;;;;714.60;676.33;;;6.90;99.90;;;;;;5033083;28;20182;-71
2024/02/27 04:56:28;;;;;;;693.20;656.47;;;6.70;99.90;;;;;;5032248;28;20227;-71
2024/02/27 04:58:53;;;;;;;711.93;673.03;;;7.10;99.90;;;;;;5033095;28;20168;-70
2024/02/27 05:01:19;;;;;;;686.03;648.37;;;6.70;99.90;;;;;;5032710;28;20651;-70
2024/02/27 05:03:45;;;;;;;698.77;661.07;;;6.80;99.90;;;;;;5032985;28;20440;-70
2024/02/27 05:06:10;;;;;;;1006.70;939.80;;;6.80;99.90;;;;;;5032796;28;20461;-71
2024/02/27 05:08:36;;;;;;;703.23;664.53;;;;;;;;;;5032866;28;20621;-70
2024/02/27 05:11:02;;;;;;;724.20;684.80;;;6.90;99.90;;;;;;5014964;28;20290;-70
2024/02/27 05:13:28;;;;;;;703.20;664.17;;;6.80;99.90;;;;;;5032498;28;20403;-70
2024/02/27 05:15:54;;;;;;;709.63;670.67;;;7.20;99.90;;;;;;5032578;28;20168;-70
2024/02/27 05:18:20;;;;;;;730.93;691.33;;;6.80;99.90;;;;;;5032674;28;20194;-70
2024/02/27 05:20:46;;;;;;;686.33;648.83;;;6.90;99.90;;;;;;5032696;28;20482;-70
2024/02/27 05:23:13;;;;;;;658.40;622.73;;;6.80;99.90;;;;;;5032305;28;20172;-70
2024/02/27 05:25:39;;;;;;;690.17;652.27;;;6.50;99.90;;;;;;5014702;28;20423;-70
2024/02/27 05:28:05;;;;;;;771.40;728.73;;;6.60;99.90;;;;;;5014798;28;20442;-71
2024/02/27 05:30:30;;;;;;;665.67;630.17;;;6.50;99.90;;;;;;5032384;28;20239;-70
2024/02/27 05:32:57;;;;;;;657.33;622.67;;;6.50;99.90;;;;;;5032201;28;20200;-71
2024/02/27 05:35:22;;;;;;;619.77;586.67;;;6.50;99.90;;;;;;5033090;28;20164;-71
2024/02/27 05:37:49;;;;;;;947.13;881.20;;;6.40;99.90;;;;;;5032957;28;20419;-71
2024/02/27 05:40:14;;;;;;;921.30;863.43;;;6.30;99.90;;;;;;5033202;28;20176;-71
2024/02/27 05:42:40;;;;;;;635.07;601.23;;;6.20;99.90;;;;;;5032808;28;20415;-71
2024/02/27 05:45:07;;;;;;;625.80;593.10;;;6.20;99.90;;;;;;5032909;28;20587;-70
2024/02/27 05:47:32;;;;;;;607.40;574.90;;;6.20;99.90;;;;;;5032023;28;20446;-70
2024/02/27 05:49:58;;;;;;;659.20;622.37;;;6.10;99.90;;;;;;5032109;28;20451;-71
2024/02/27 05:52:24;;;;;;;662.73;627.73;;;6.10;99.90;;;;;;5031849;28;20167;-71
2024/02/27 05:54:49;;;;;;;814.20;761.67;;;6.20;99.90;;;;;;5032136;28;20179;-71
2024/02/27 05:57:15;;;;;;;648.13;613.00;;;6.20;99.90;;;;;;5031999;28;20219;-70
2024/02/27 05:59:40;;;;;;;668.17;632.67;;;6.20;99.90;;;;;;5032031;28;20204;-70
2024/02/27 06:02:06;;;;;;;692.67;654.97;;;6.30;99.90;;;;;;5031841;28;20259;-70
2024/02/27 06:04:32;;;;;;;648.13;613.17;;;6.30;99.90;;;;;;5032156;28;20180;-70
2024/02/27 06:06:58;;;;;;;690.47;653.17;;;6.30;99.90;;;;;;5031970;28;20318;-70
2024/02/27 06:09:24;;;;;;;725.73;686.43;;;6.40;99.90;;;;;;5033126;28;20687;-71
2024/02/27 06:11:50;;;;;;;697.43;659.53;;;6.50;99.90;;;;;;5032900;28;20419;-70
2024/02/27 06:14:15;;;;;;;698.33;659.87;;;6.50;99.90;;;;;;5032127;28;20247;-71
2024/02/27 06:16:41;;;;;;;669.17;632.70;;;6.50;99.90;;;;;;5014199;28;20439;-69
2024/02/27 06:19:08;;;;;;;990.87;921.03;;;6.40;99.90;;;;;;5031828;28;20165;-69
2024/02/27 06:24:21;;;;;;;934.27;873.70;;;6.30;99.90;;;;;;5031828;28;20395;-71
2024/02/27 06:26:46;;;;;;;674.67;637.87;;;6.30;99.90;;;;;;5031737;28;20839;-70
2024/02/27 06:29:12;;;;;;;707.70;668.17;;;6.40;99.90;;;;;;5031553;28;20214;-70
2024/02/27 06:31:37;;;;;;;780.30;735.27;;;6.20;99.90;;;;;;5031621;28;20544;-68
2024/02/27 06:34:03;;;;;;;627.90;593.90;;;6.10;99.90;;;;;;5031692;28;20169;-69
2024/02/27 06:36:30;;;;;;;642.50;607.43;;;6.10;99.90;;;;;;5031625;28;20242;-70
2024/02/27 06:38:56;;;;;;;681.70;645.53;;;6.10;99.90;;;;;;5031574;28;20598;-70
2024/02/27 06:41:25;;;;;;;612.07;579.47;;;6.20;99.90;;;;;;5013559;28;20427;-71
2024/02/27 06:43:51;;;;;;;635.10;601.13;;;6.10;99.90;;;;;;5031501;28;20403;-70
2024/02/27 06:46:17;;;;;;;609.77;577.23;;;6.10;99.90;;;;;;5031371;28;20442;-70
2024/02/27 06:48:43;;;;;;;859.80;804.00;;;6.10;99.90;;;;;;5031539;28;20176;-71
2024/02/27 06:51:09;;;;;;;635.73;601.63;;;6.10;99.90;;;;;;5031425;28;20203;-70
2024/02/27 06:53:35;;;;;;;607.83;575.27;;;6.20;99.90;;;;;;5031370;28;20407;-70
2024/02/27 06:56:01;;;;;;;797.73;749.53;;;6.20;99.90;;;;;;5031557;28;20315;-70
2024/02/27 06:58:28;;;;;;;613.57;580.00;;;6.20;99.90;;;;;;5031395;28;20407;-70
2024/02/27 07:00:54;;;;;;;610.93;577.53;;;6.20;99.90;;;;;;5013618;28;20415;-69
2024/02/27 07:03:20;;;;;;;635.83;601.70;;;6.20;99.90;;;;;;5031178;28;21028;-70
2024/02/27 07:05:45;;;;;;;631.60;598.50;;;6.20;99.90;;;;;;5031459;28;20263;-70
2024/02/27 07:08:11;;;;;;;861.70;805.73;;;6.10;99.90;;;;;;5031353;28;20403;-70
2024/02/27 07:10:38;;;;;;;719.50;678.50;;;6.10;99.90;;;;;;5031326;28;20247;-71
2024/02/27 07:13:06;;;;;;;645.00;610.40;;;6.20;99.90;;;;;;5031030;28;20179;-70
2024/02/27 07:15:32;;;;;;;608.93;575.97;;;6.20;99.90;;;;;;5031344;28;20465;-70
2024/02/27 07:17:58;;;;;;;700.57;660.67;;;6.10;99.90;;;;;;5031272;28;20826;-70
2024/02/27 07:20:25;;;;;;;712.33;671.53;;;6.10;99.90;;;;;;5033411;28;20403;-70
2024/02/27 07:22:50;;;;;;;632.57;599.30;;;6.00;99.90;;;;;;5034634;28;20195;-69
2024/02/27 07:25:16;;;;;;;735.40;693.03;;;6.10;99.90;;;;;;5035008;28;20414;-70
2024/02/27 07:27:42;;;;;;;864.67;814.20;;;6.10;99.90;;;;;;5034686;28;20275;-70
2024/02/27 07:30:09;;;;;;;570.87;539.87;;;5.90;99.90;;;;;;5034678;28;20263;-69
2024/02/27 07:32:35;;;;;;;598.23;566.23;;;6.00;99.90;;;;;;5034379;28;20419;-70
2024/02/27 07:35:01;;;;;;;947.50;876.93;;;6.10;99.90;;;;;;5034641;28;20472;-70
2024/02/27 07:37:27;;;;;;;839.80;789.73;;;;;;;;;;5034609;28;20188;-70
2024/02/27 07:39:52;;;;;;;658.50;622.60;;;6.10;99.90;;;;;;5034545;28;20172;-70
2024/02/27 07:42:18;;;;;;;643.53;609.60;;;6.20;99.90;;;;;;5034100;28;20472;-70
2024/02/27 07:44:43;;;;;;;772.40;728.77;;;6.20;99.90;;;;;;5034501;28;20172;-70
2024/02/27 07:47:09;;;;;;;785.37;740.87;;;6.20;99.90;;;;;;5016470;28;20215;-71
2024/02/27 07:49:35;;;;;;;662.60;626.67;;;6.30;99.90;;;;;;5034248;28;20689;-69
2024/02/27 07:52:00;;;;;;;623.13;590.10;;;6.30;99.90;;;;;;5034299;28;20179;-70
2024/02/27 07:54:26;;;;;;;637.80;603.73;;;6.30;99.90;;;;;;5034272;28;20215;-70
2024/02/27 07:56:52;;;;;;;652.63;617.23;;;6.40;99.90;;;;;;5034119;28;20616;-70
2024/02/27 07:59:18;;;;;;;701.40;663.20;;;6.40;99.90;;;;;;5034153;28;20439;-69
2024/02/27 08:01:44;;;;;;;673.07;636.43;;;6.40;99.90;;;;;;5034000;28;20203;-69
2024/02/27 08:04:09;;;;;;;643.23;608.17;;;6.50;99.90;;;;;;5033857;28;20626;-70
2024/02/27 08:06:35;;;;;;;852.20;797.07;;;6.60;99.90;;;;;;5016023;28;20200;-70
2024/02/27 08:09:01;;;;;;;674.83;637.17;;;6.60;99.90;;;;;;5034049;28;20176;-71
2024/02/27 08:11:27;;;;;;;694.47;656.30;;;;;;;;;;5033881;28;20164;-71
2024/02/27 08:13:52;;;;;;;667.83;631.47;;;6.80;99.90;;;;;;5033865;28;20248;-71
2024/02/27 08:16:18;;;;;;;749.77;707.30;;;6.80;99.90;;;;;;5033894;28;20459;-70
2024/02/27 08:18:45;;;;;;;744.47;703.57;;;7.20;99.90;;;;;;5033853;28;20173;-70
2024/02/27 08:21:10;;;;;;;760.27;717.87;;;7.10;99.90;;;;;;5033558;28;20481;-70
2024/02/27 08:23:38;;;;;;;806.50;758.07;;;7.30;99.90;;;;;;5033889;28;20422;-69
2024/02/27 08:26:04;;;;;;;776.27;732.03;;;7.50;99.90;;;;;;5034188;28;20686;-71
2024/02/27 08:28:29;;;;;;;823.33;775.37;;;7.60;99.90;;;;;;5033974;28;20419;-71
2024/02/27 08:30:55;;;;;;;995.87;930.80;;;7.60;99.90;;;;;;5033817;28;20459;-71
2024/02/27 08:33:21;;;;;;;787.47;743.00;;;7.70;99.90;;;;;;5033674;28;20171;-71
2024/02/27 08:35:48;;;;;;;758.43;716.13;;;7.50;99.90;;;;;;5033934;28;20222;-70
2024/02/27 08:38:14;;;;;;;772.70;728.50;;;7.40;99.90;;;;;;5033510;28;20686;-71
2024/02/27 08:40:39;;;;;;;716.33;676.47;;;7.40;99.90;;;;;;5033428;28;20434;-70
2024/02/27 08:43:05;;;;;;;695.60;657.03;;;7.40;99.90;;;;;;5033286;28;20184;-70
2024/02/27 08:45:30;;;;;;;692.93;656.60;;;7.20;99.90;;;;;;5033189;28;20207;-70
2024/02/27 08:47:56;;;;;;;721.80;682.10;;;7.50;99.90;;;;;;5033021;28;20265;-70
2024/02/27 08:50:22;;;;;;;749.13;709.10;;;7.30;99.90;;;;;;5033104;28;20196;-70
2024/02/27 08:52:48;;;;;;;737.87;697.97;;;7.40;99.90;;;;;;5033145;28;20418;-70
2024/02/27 08:55:13;;;;;;;694.90;657.40;;;7.30;99.90;;;;;;5015555;28;20264;-71
2024/02/27 08:57:39;;;;;;;715.80;674.60;;;7.40;99.90;;;;;;5033405;28;20188;-71
2024/02/27 09:00:07;;;;;;;797.80;752.30;;;7.50;99.90;;;;;;5033476;28;20181;-71
2024/02/27 09:02:37;;;;;;;996.00;928.07;;;7.70;99.90;;;;;;5032929;28;20184;-70
2024/02/27 09:05:04;;;;;;;741.27;700.87;;;7.50;99.90;;;;;;5033359;28;20427;-70
2024/02/27 09:07:29;;;;;;;1097.23;999.90;;;7.70;99.90;;;;;;5033321;28;20462;-71
2024/02/27 09:09:55;;;;;;;1097.10;999.90;;;7.90;99.90;;;;;;5033428;28;20482;-71
2024/02/27 09:12:23;;;;;;;837.93;789.57;;;8.00;99.90;;;;;;5033181;28;20176;-71
2024/02/27 09:14:49;;;;;;;1019.30;946.53;;;8.20;99.90;;;;;;5033300;28;20636;-71
2024/02/27 09:17:15;;;;;;;795.40;750.50;;;8.20;99.90;;;;;;5031864;28;20509;-70
2024/02/27 09:19:40;;;;;;;917.37;861.97;;;8.30;99.90;;;;;;5031894;28;20418;-71
2024/02/27 09:22:06;;;;;;;785.17;741.37;;;;;;;;;;5032329;28;20170;-71
2024/02/27 09:24:32;;;;;;;789.63;744.83;;;8.40;99.90;;;;;;5032717;28;20174;-71
2024/02/27 09:26:58;;;;;;;794.57;750.57;;;8.50;99.30;;;;;;5032871;28;20450;-71
2024/02/27 09:29:23;;;;;;;782.13;738.77;;;8.50;97.40;;;;;;5030334;28;20193;-72
2024/02/27 09:31:49;;;;;;;781.07;736.97;;;8.60;97.00;;;;;;5032087;28;20664;-71
2024/02/27 09:34:15;;;;;;;833.60;786.13;;;8.80;97.00;;;;;;5032336;28;20567;-69
2024/02/27 09:36:40;;;;;;;878.03;826.17;;;8.80;87.20;;;;;;5014695;28;20194;-71
2024/02/27 09:39:07;;;;;;;840.47;792.67;;;8.70;86.90;;;;;;5031906;28;20169;-68
2024/02/27 09:42:08;;;;;;;1045.10;974.07;;;8.70;90.30;;;;;;5032256;28;20280;-71
2024/02/27 09:44:39;;;;;;;1171.30;999.90;;;8.60;86.10;;;;;;5032410;28;20453;-70
2024/02/27 09:47:08;;;;;;;809.30;764.07;;;8.80;91.90;;;;;;5027745;28;20483;-69
2024/02/27 09:49:39;;;;;;;830.20;782.87;;;8.60;93.80;;;;;;5048182;23;20485;-72
2024/02/27 09:52:07;;;;;;;829.27;782.83;;;8.80;96.10;;;;;;5041606;28;20414;-73
2024/02/27 09:54:35;;;;;;;840.57;792.00;;;9.20;87.90;;;;;;5038676;28;20409;-71
2024/02/27 09:57:02;;;;;;;858.57;809.00;;;8.80;84.50;;;;;;5033435;28;20489;-72
2024/02/27 09:59:28;;;;;;;777.93;734.57;;;8.90;72.80;;;;;;5032047;28;20424;-71
2024/02/27 10:02:24;;;;;;;795.90;750.23;;;8.50;87.50;;;;;;5033584;28;20419;-71
2024/02/27 10:04:51;;;;;;;795.63;749.63;;;8.70;93.20;;;;;;5026739;28;20193;-72
2024/02/27 10:07:18;;;;;;;827.27;779.07;;;8.90;93.30;;;;;;5031398;28;20470;-72
2024/02/27 10:09:45;;;;;;;850.70;800.17;;;9.00;92.10;;;;;;5038186;28;20955;-72
2024/02/27 10:12:13;;;;;;;839.77;791.30;;;9.00;72.50;;;;;;5030970;28;20401;-72
2024/02/27 10:14:39;;;;;;;840.60;792.80;;;9.10;83.00;;;;;;5031593;28;20418;-72
2024/02/27 10:17:06;;;;;;;807.70;761.03;;;8.40;89.30;;;;;;5031062;28;20903;-71
2024/02/27 10:19:33;;;;;;;796.33;749.67;;;8.30;94.60;;;;;;5031362;28;20455;-72
2024/02/27 10:21:59;;;;;;;727.10;686.70;;;8.60;98.50;;;;;;5031045;28;20496;-72
2024/02/27 10:24:27;;;;;;;932.70;873.90;;;8.30;96.20;;;;;;5031053;28;20470;-72
2024/02/27 10:26:53;;;;;;;841.87;791.77;;;8.30;97.30;;;;;;5037921;28;20415;-71
2024/02/27 10:29:20;;;;;;;896.80;842.67;;;8.30;94.00;;;;;;5031530;28;20454;-72
2024/02/27 10:31:47;;;;;;;783.53;739.80;;;8.30;94.10;;;;;;5030503;28;20408;-70
2024/02/27 10:34:13;;;;;;;753.57;711.17;;;8.20;96.60;;;;;;5030929;28;20412;-72
2024/02/27 10:36:38;;;;;;;815.27;768.30;;;8.20;97.80;;;;;;5031688;28;20495;-70
2024/02/27 10:39:08;;;;;;;793.97;749.07;;;8.30;99.90;;;;;;5039333;28;20408;-70
2024/02/27 10:41:36;;;;;;;788.73;744.87;;;8.20;97.60;;;;;;5030158;28;20177;-71
2024/02/27 10:44:02;;;;;;;1002.00;938.47;;;8.20;99.90;;;;;;5031297;28;20408;-73
2024/02/27 10:46:29;;;;;;;973.70;911.03;;;8.30;95.10;;;;;;5030471;28;20971;-72
2024/02/27 10:48:54;;;;;;;1216.13;999.90;;;8.00;99.90;;;;;;5030484;28;20412;-72
2024/02/27 10:51:22;;;;;;;755.30;712.63;;;8.30;99.90;;;;;;5030666;28;20466;-72
2024/02/27 10:53:50;;;;;;;768.27;725.20;;;8.10;99.90;;;;;;5031069;28;20180;-72
2024/02/27 10:56:17;;;;;;;871.40;820.60;;;8.30;99.50;;;;;;5026535;28;20823;-72
2024/02/27 10:58:46;;;;;;;812.07;766.40;;;8.30;99.90;;;;;;5034985;28;20411;-72
2024/02/27 11:01:12;;;;;;;888.37;836.30;;;8.60;99.90;;;;;;5039468;28;20444;-72
2024/02/27 11:03:42;;;;;;;882.33;828.37;;;8.40;95.80;;;;;;5034115;28;20528;-72
2024/02/27 11:06:14;;;;;;;782.53;739.77;;;8.30;92.60;;;;;;5034698;28;20424;-72
2024/02/27 11:08:41;;;;;;;757.80;715.27;;;8.40;95.30;;;;;;5034498;28;20423;-72
2024/02/27 11:11:07;;;;;;;804.93;759.10;;;8.40;98.10;;;;;;5034030;28;20977;-72
2024/02/27 11:13:36;;;;;;;945.40;885.50;;;8.60;91.70;;;;;;5034079;28;20435;-71
2024/02/27 11:16:04;;;;;;;836.97;788.57;;;8.80;98.20;;;;;;5034317;28;20500;-73
2024/02/27 11:18:34;;;;;;;1022.33;952.07;;;9.00;93.80;;;;;;5034101;28;20411;-72
2024/02/27 11:21:02;;;;;;;906.87;851.83;;;9.20;84.70;;;;;;5034327;28;20567;-72
2024/02/27 11:23:28;;;;;;;885.33;833.93;;;9.60;80.20;;;;;;5033808;28;20763;-72
2024/02/27 11:25:55;;;;;;;944.73;888.50;;;9.70;73.90;;;;;;5033554;28;20428;-72
2024/02/27 11:28:22;;;;;;;873.30;822.13;;;9.60;51.90;;;;;;5033970;28;20445;-72
2024/02/27 11:30:48;;;;;;;917.17;862.97;;;9.50;56.00;;;;;;5034126;28;20464;-71
2024/02/27 11:33:18;;;;;;;855.07;804.57;;;9.30;52.50;;;;;;5033086;28;20771;-72
2024/02/27 11:35:43;;;;;;;886.83;834.53;;;9.40;71.20;;;;;;5034047;28;20414;-71
2024/02/27 11:38:11;;;;;;;1059.63;986.37;;;9.70;68.20;;;;;;5034087;28;20465;-73
2024/02/27 11:40:52;;;;;;;1111.10;999.90;;;9.90;64.50;;;;;;5033607;28;20200;-73
2024/02/27 11:43:19;;;;;;;915.43;862.27;;;10.00;51.90;;;;;;5033359;28;20437;-72
2024/02/27 11:45:45;;;;;;;1017.60;948.07;;;10.10;49.60;;;;;;5034336;28;20946;-72
2024/02/27 11:48:11;;;;;;;888.67;837.27;;;10.10;41.50;;;;;;5033537;28;20447;-72
2024/02/27 11:50:37;;;;;;;868.67;818.43;;;9.90;47.10;;;;;;5033556;28;20688;-72
2024/02/27 11:53:20;;;;;;;866.73;815.67;;;9.50;62.80;;;;;;5033218;28;20419;-72
2024/02/27 11:55:53;;;;;;;869.80;817.73;;;9.50;68.90;;;;;;5033891;28;20179;-71
2024/02/27 11:58:20;;;;;;;843.87;795.23;;;9.30;70.50;;;;;;5033662;28;20939;-72
2024/02/27 12:00:46;;;;;;;824.13;777.43;;;9.20;70.20;;;;;;5033519;28;20432;-72
2024/02/27 12:03:12;;;;;;;830.40;782.70;;;9.00;60.50;;;;;;5032986;28;20428;-72
2024/02/27 12:05:38;;;;;;;1141.17;999.90;;;8.80;78.70;;;;;;5033049;28;20510;-72
2024/02/27 12:08:05;;;;;;;801.17;755.40;;;8.90;79.50;;;;;;5036661;28;20419;-71
2024/02/27 12:10:31;;;;;;;848.03;799.57;;;8.80;82.90;;;;;;5033533;28;20471;-73
2024/02/27 12:12:57;;;;;;;822.47;775.87;;;8.90;88.30;;;;;;5033164;28;20414;-72
2024/02/27 12:15:23;;;;;;;767.67;724.50;;;8.70;85.60;;;;;;5033479;28;20416;-70
2024/02/27 12:17:48;;;;;;;760.33;717.77;;;8.50;83.20;;;;;;5032987;28;20264;-71